www.cux-wetter.de
Wetterdaten: Woche 28.03.11 - 03.04.11 (KW13)
Datum Zeit Temp. A. Feuchte A. Luftdruck Regen Wind Richtung Sonnenschein Solar Taupunkt Windchill Windben
28.03.2011 00:00 2,9 C 73 % 1010,8 hPa 0,0 l/m 10,1 km/h (2 Bft) NW 0,00 h 0 W/m -1,3 C -0,2 C 10,1 km/h (2 Bft)
28.03.2011 01:00 3,0 C 76 % 1010,5 hPa 0,0 l/m 11,3 km/h (2 Bft) W-NW 0,00 h 0 W/m -0,8 C -1,0 C 11,3 km/h (2 Bft)
28.03.2011 02:00 3,0 C 79 % 1010,5 hPa 0,0 l/m 9,4 km/h (2 Bft) W-NW 0,00 h 0 W/m -0,3 C 0,4 C 9,4 km/h (2 Bft)
28.03.2011 03:00 3,1 C 81 % 1010,5 hPa 0,0 l/m 13,5 km/h (3 Bft) NW 0,00 h 0 W/m 0,1 C -2,2 C 13,5 km/h (3 Bft)
28.03.2011 04:00 3,6 C 82 % 1010,5 hPa 0,0 l/m 21,0 km/h (4 Bft) NW 0,00 h 0 W/m 0,8 C -5,3 C 21,0 km/h (4 Bft)
28.03.2011 05:00 4,0 C 84 % 1010,5 hPa 0,0 l/m 22,3 km/h (4 Bft) NW 0,00 h 0 W/m 1,5 C -5,3 C 22,3 km/h (4 Bft)
28.03.2011 06:00 4,4 C 85 % 1009,8 hPa 0,0 l/m 23,1 km/h (4 Bft) W-NW 0,00 h 0 W/m 2,0 C -5,0 C 23,1 km/h (4 Bft)
28.03.2011 07:00 4,7 C 86 % 1010,3 hPa 0,0 l/m 24,9 km/h (4 Bft) W-NW 0,00 h 0 W/m 2,6 C -5,3 C 24,9 km/h (4 Bft)
28.03.2011 08:00 4,8 C 88 % 1010,5 hPa 0,0 l/m 20,5 km/h (4 Bft) NW 0,00 h 0 W/m 2,9 C -3,5 C 20,5 km/h (4 Bft)
28.03.2011 09:00 5,5 C 82 % 1010,9 hPa 0,0 l/m 20,6 km/h (4 Bft) N 0,00 h 0 W/m 2,7 C -2,7 C 20,6 km/h (4 Bft)
28.03.2011 10:00 6,3 C 78 % 1011,5 hPa 0,0 l/m 21,4 km/h (4 Bft) N 0,00 h 0 W/m 2,7 C -1,9 C 21,4 km/h (4 Bft)
28.03.2011 11:00 7,8 C 71 % 1012,3 hPa 0,0 l/m 24,1 km/h (4 Bft) N-NO 0,00 h 0 W/m 3,0 C -0,8 C 24,1 km/h (4 Bft)
28.03.2011 12:00 8,8 C 67 % 1012,5 hPa 0,0 l/m 24,1 km/h (4 Bft) N 0,00 h 0 W/m 3,0 C 0,5 C 24,1 km/h (4 Bft)
28.03.2011 13:00 9,1 C 64 % 1013,5 hPa 0,0 l/m 21,5 km/h (4 Bft) N 0,00 h 0 W/m 2,5 C 1,6 C 21,5 km/h (4 Bft)
28.03.2011 14:00 9,3 C 58 % 1013,5 hPa 0,0 l/m 21,1 km/h (4 Bft) N 0,00 h 0 W/m 1,5 C 2,1 C 21,1 km/h (4 Bft)
28.03.2011 15:00 8,8 C 59 % 1013,5 hPa 0,0 l/m 23,7 km/h (4 Bft) N 0,00 h 0 W/m 1,2 C 0,7 C 23,7 km/h (4 Bft)
28.03.2011 16:00 8,0 C 63 % 1013,5 hPa 0,0 l/m 22,6 km/h (4 Bft) N 0,00 h 0 W/m 1,4 C -0,1 C 22,6 km/h (4 Bft)
28.03.2011 17:00 7,3 C 64 % 1013,5 hPa 0,0 l/m 21,2 km/h (4 Bft) N 0,00 h 0 W/m 0,9 C -0,5 C 21,2 km/h (4 Bft)
28.03.2011 18:00 6,6 C 69 % 1014,4 hPa 0,0 l/m 18,6 km/h (3 Bft) N 0,00 h 0 W/m 1,4 C -0,5 C 18,6 km/h (3 Bft)
28.03.2011 19:00 6,1 C 70 % 1014,5 hPa 0,0 l/m 15,6 km/h (3 Bft) N-NW 0,00 h 0 W/m 1,0 C 0,2 C 15,6 km/h (3 Bft)
28.03.2011 20:00 5,6 C 71 % 1014,5 hPa 0,0 l/m 12,7 km/h (3 Bft) NW 0,00 h 0 W/m 0,8 C 1,2 C 12,7 km/h (3 Bft)
28.03.2011 21:00 5,4 C 75 % 1015,1 hPa 0,0 l/m 10,5 km/h (2 Bft) NW 0,00 h 0 W/m 1,2 C 2,2 C 10,5 km/h (2 Bft)
28.03.2011 22:00 5,1 C 78 % 1015,5 hPa 0,0 l/m 10,5 km/h (2 Bft) NW 0,00 h 0 W/m 1,6 C 2,0 C 10,5 km/h (2 Bft)
28.03.2011 23:00 4,9 C 79 % 1015,1 hPa 0,0 l/m 7,4 km/h (2 Bft) NW 0,00 h 0 W/m 1,5 C 3,8 C 7,4 km/h (2 Bft)
29.03.2011 00:00 4,4 C 78 % 1014,5 hPa 0,0 l/m 3,6 km/h (1 Bft) SW 0,00 h 0 W/m 0,9 C 4,3 C 3,6 km/h (1 Bft)
29.03.2011 01:00 3,7 C 78 % 1014,5 hPa 0,0 l/m 1,4 km/h (1 Bft) SW 0,00 h 0 W/m 0,3 C 3,7 C 1,4 km/h (1 Bft)
29.03.2011 02:00 3,1 C 79 % 1014,5 hPa 0,0 l/m 4,5 km/h (1 Bft) SW 0,00 h 0 W/m -0,2 C 3,1 C 4,5 km/h (1 Bft)
29.03.2011 03:00 3,1 C 80 % 1014,5 hPa 0,0 l/m 4,2 km/h (1 Bft) SW 0,00 h 0 W/m 0,0 C 3,1 C 4,2 km/h (1 Bft)
29.03.2011 04:00 3,0 C 82 % 1014,5 hPa 0,0 l/m 5,6 km/h (2 Bft) SW 0,00 h 0 W/m 0,2 C 1,6 C 5,6 km/h (2 Bft)
29.03.2011 05:00 3,7 C 86 % 1014,5 hPa 0,0 l/m 10,9 km/h (2 Bft) W 0,00 h 0 W/m 1,6 C 0,1 C 10,9 km/h (2 Bft)
29.03.2011 06:00 3,7 C 86 % 1013,8 hPa 0,0 l/m 9,5 km/h (2 Bft) W-SW 0,00 h 0 W/m 1,5 C 1,1 C 9,5 km/h (2 Bft)
29.03.2011 07:00 3,0 C 84 % 1013,9 hPa 0,0 l/m 3,2 km/h (1 Bft) W-SW 0,00 h 0 W/m 0,5 C 3,0 C 3,2 km/h (1 Bft)
29.03.2011 08:00 3,2 C 85 % 1014,3 hPa 0,0 l/m 5,9 km/h (2 Bft) W-SW 0,00 h 0 W/m 0,9 C 2,1 C 5,9 km/h (2 Bft)
29.03.2011 09:00 4,6 C 86 % 1014,5 hPa 0,0 l/m 15,7 km/h (3 Bft) W 0,00 h 0 W/m 2,5 C -1,7 C 15,7 km/h (3 Bft)
29.03.2011 10:00 5,9 C 78 % 1014,1 hPa 0,0 l/m 19,6 km/h (3 Bft) W 0,00 h 0 W/m 2,3 C -1,8 C 19,6 km/h (3 Bft)
29.03.2011 11:00 8,0 C 67 % 1013,7 hPa 0,0 l/m 22,1 km/h (4 Bft) W 0,00 h 0 W/m 2,3 C 0,0 C 22,1 km/h (4 Bft)
29.03.2011 12:00 9,2 C 62 % 1013,5 hPa 0,0 l/m 23,2 km/h (4 Bft) W 0,00 h 0 W/m 2,4 C 1,3 C 23,2 km/h (4 Bft)
29.03.2011 13:00 10,3 C 59 % 1013,5 hPa 0,0 l/m 23,8 km/h (4 Bft) W 0,00 h 0 W/m 2,7 C 2,7 C 23,8 km/h (4 Bft)
29.03.2011 14:00 11,4 C 56 % 1013,5 hPa 0,0 l/m 23,9 km/h (4 Bft) W-SW 0,00 h 0 W/m 2,9 C 4,0 C 23,9 km/h (4 Bft)
29.03.2011 15:00 11,9 C 56 % 1013,0 hPa 0,0 l/m 22,6 km/h (4 Bft) W-NW 0,00 h 0 W/m 3,3 C 5,0 C 22,6 km/h (4 Bft)
29.03.2011 16:00 11,9 C 52 % 1012,5 hPa 0,0 l/m 19,7 km/h (3 Bft) W-NW 0,00 h 0 W/m 2,2 C 5,9 C 19,7 km/h (3 Bft)
29.03.2011 17:00 11,0 C 54 % 1012,5 hPa 0,0 l/m 18,8 km/h (3 Bft) NW 0,00 h 0 W/m 2,1 C 5,0 C 18,8 km/h (3 Bft)
29.03.2011 18:00 10,1 C 58 % 1012,5 hPa 0,0 l/m 16,3 km/h (3 Bft) W-NW 0,00 h 0 W/m 2,2 C 4,8 C 16,3 km/h (3 Bft)
29.03.2011 19:00 9,0 C 63 % 1012,5 hPa 0,0 l/m 11,0 km/h (2 Bft) NW 0,00 h 0 W/m 2,2 C 5,9 C 11,0 km/h (2 Bft)
29.03.2011 20:00 8,1 C 67 % 1012,5 hPa 0,0 l/m 6,4 km/h (2 Bft) W 0,00 h 0 W/m 2,4 C 7,5 C 6,4 km/h (2 Bft)
29.03.2011 21:00 7,2 C 69 % 1012,5 hPa 0,0 l/m 4,7 km/h (1 Bft) W 0,00 h 0 W/m 1,9 C 7,2 C 4,7 km/h (1 Bft)
29.03.2011 22:00 6,0 C 71 % 1012,5 hPa 0,0 l/m 4,3 km/h (1 Bft) W 0,00 h 0 W/m 1,2 C 6,0 C 4,3 km/h (1 Bft)
29.03.2011 23:00 5,4 C 72 % 1012,5 hPa 0,0 l/m 3,1 km/h (1 Bft) W 0,00 h 0 W/m 0,8 C 5,4 C 3,1 km/h (1 Bft)
30.03.2011 00:00 4,9 C 73 % 1012,5 hPa 0,0 l/m 0,8 km/h (0 Bft) S-SW 0,00 h 0 W/m 0,4 C 4,9 C 0,8 km/h (0 Bft)
30.03.2011 01:00 4,5 C 73 % 1012,4 hPa 0,0 l/m 2,4 km/h (1 Bft) W-SW 0,00 h 0 W/m 0,1 C 4,5 C 2,4 km/h (1 Bft)
30.03.2011 02:00 4,2 C 74 % 1012,3 hPa 0,0 l/m 0,7 km/h (0 Bft) W-SW 0,00 h 0 W/m 0,0 C 4,2 C 0,7 km/h (0 Bft)
30.03.2011 03:00 3,9 C 75 % 1012,3 hPa 0,0 l/m 0,6 km/h (0 Bft) W-SW 0,00 h 0 W/m -0,1 C 3,9 C 0,6 km/h (0 Bft)
30.03.2011 04:00 4,5 C 77 % 1011,5 hPa 0,0 l/m 2,0 km/h (1 Bft) W-SW 0,00 h 0 W/m 0,8 C 4,5 C 2,0 km/h (1 Bft)
30.03.2011 05:00 5,1 C 78 % 1011,5 hPa 0,0 l/m 2,3 km/h (1 Bft) W-SW 0,00 h 0 W/m 1,6 C 5,1 C 2,3 km/h (1 Bft)
30.03.2011 06:00 5,3 C 79 % 1012,4 hPa 0,0 l/m 0,0 km/h (0 Bft) N 0,00 h 0 W/m 2,0 C 5,3 C 0,0 km/h (0 Bft)
30.03.2011 07:00 5,4 C 80 % 1012,5 hPa 0,0 l/m 0,0 km/h (0 Bft) N 0,00 h 0 W/m 2,3 C 5,4 C 0,0 km/h (0 Bft)
30.03.2011 08:00 5,7 C 81 % 1012,5 hPa 0,0 l/m 0,5 km/h (0 Bft) W-SW 0,00 h 0 W/m 2,6 C 5,7 C 0,5 km/h (0 Bft)
30.03.2011 09:00 6,3 C 82 % 1012,5 hPa 0,0 l/m 4,6 km/h (1 Bft) W-SW 0,00 h 0 W/m 3,3 C 6,1 C 4,6 km/h (1 Bft)
30.03.2011 10:00 8,2 C 75 % 1012,7 hPa 0,0 l/m 6,9 km/h (2 Bft) W-SW 0,00 h 0 W/m 4,1 C 7,5 C 6,9 km/h (2 Bft)
30.03.2011 11:00 9,9 C 70 % 1013,5 hPa 0,0 l/m 1,5 km/h (1 Bft) N-NO 0,00 h 0 W/m 4,6 C 9,9 C 1,5 km/h (1 Bft)
30.03.2011 12:00 12,1 C 63 % 1012,8 hPa 0,0 l/m 4,3 km/h (1 Bft) N-NO 0,00 h 0 W/m 5,3 C 12,0 C 4,3 km/h (1 Bft)
30.03.2011 13:00 13,1 C 58 % 1012,5 hPa 0,0 l/m 8,3 km/h (2 Bft) NO 0,00 h 0 W/m 5,1 C 11,9 C 8,3 km/h (2 Bft)
30.03.2011 14:00 14,2 C 52 % 1011,9 hPa 0,0 l/m 9,6 km/h (2 Bft) O 0,00 h 0 W/m 4,6 C 12,5 C 9,6 km/h (2 Bft)
30.03.2011 15:00 14,8 C 53 % 1011,5 hPa 0,0 l/m 9,6 km/h (2 Bft) O-NO 0,00 h 0 W/m 5,2 C 13,1 C 9,6 km/h (2 Bft)
30.03.2011 16:00 15,1 C 53 % 1010,9 hPa 0,0 l/m 8,1 km/h (2 Bft) O-NO 0,00 h 0 W/m 5,5 C 14,1 C 8,1 km/h (2 Bft)
30.03.2011 17:00 15,6 C 45 % 1010,5 hPa 0,0 l/m 13,7 km/h (3 Bft) W-SW 0,00 h 0 W/m 3,8 C 12,5 C 13,7 km/h (3 Bft)
30.03.2011 18:00 14,9 C 46 % 1010,5 hPa 0,0 l/m 8,8 km/h (2 Bft) S-SW 0,00 h 0 W/m 3,2 C 13,6 C 8,8 km/h (2 Bft)
30.03.2011 19:00 13,4 C 50 % 1010,5 hPa 0,0 l/m 4,9 km/h (1 Bft) S-SO 0,00 h 0 W/m 3,2 C 13,4 C 4,9 km/h (1 Bft)
30.03.2011 20:00 12,8 C 53 % 1010,5 hPa 0,0 l/m 7,5 km/h (2 Bft) S-SO 0,00 h 0 W/m 3,5 C 12,0 C 7,5 km/h (2 Bft)
30.03.2011 21:00 12,5 C 59 % 1010,8 hPa 0,0 l/m 13,5 km/h (3 Bft) S 0,00 h 0 W/m 4,6 C 9,0 C 13,5 km/h (3 Bft)
30.03.2011 22:00 11,0 C 75 % 1011,3 hPa 0,3 l/m 7,8 km/h (2 Bft) W-NW 0,00 h 0 W/m 6,7 C 9,8 C 7,8 km/h (2 Bft)
30.03.2011 23:00 10,5 C 81 % 1010,9 hPa 0,3 l/m 13,1 km/h (3 Bft) W-SW 0,00 h 0 W/m 7,4 C 6,6 C 13,1 km/h (3 Bft)
31.03.2011 00:00 10,4 C 87 % 1010,9 hPa 0,9 l/m 20,4 km/h (4 Bft) W-SW 0,00 h 0 W/m 8,4 C 3,7 C 20,4 km/h (4 Bft)
31.03.2011 01:00 10,1 C 89 % 1011,5 hPa 0,0 l/m 16,3 km/h (3 Bft) W-SW 0,00 h 0 W/m 8,3 C 4,7 C 16,3 km/h (3 Bft)
31.03.2011 02:00 9,8 C 89 % 1011,1 hPa 0,3 l/m 15,3 km/h (3 Bft) W-SW 0,00 h 0 W/m 8,1 C 4,9 C 15,3 km/h (3 Bft)
31.03.2011 03:00 9,6 C 89 % 1010,5 hPa 0,3 l/m 12,0 km/h (2 Bft) W-SW 0,00 h 0 W/m 7,9 C 6,2 C 12,0 km/h (2 Bft)
31.03.2011 04:00 9,6 C 88 % 1010,5 hPa 0,3 l/m 8,2 km/h (2 Bft) S-SW 0,00 h 0 W/m 7,7 C 8,3 C 8,2 km/h (2 Bft)
31.03.2011 05:00 9,8 C 89 % 1010,5 hPa 0,3 l/m 12,8 km/h (3 Bft) SW 0,00 h 0 W/m 8,1 C 6,0 C 12,8 km/h (3 Bft)
31.03.2011 06:00 9,8 C 90 % 1010,1 hPa 0,0 l/m 12,4 km/h (2 Bft) S 0,00 h 0 W/m 8,2 C 6,3 C 12,4 km/h (2 Bft)
31.03.2011 07:00 9,8 C 91 % 1009,5 hPa 0,0 l/m 10,4 km/h (2 Bft) S 0,00 h 0 W/m 8,3 C 7,2 C 10,4 km/h (2 Bft)
31.03.2011 08:00 10,0 C 91 % 1009,5 hPa 0,3 l/m 11,0 km/h (2 Bft) S-SW 0,00 h 0 W/m 8,6 C 7,2 C 11,0 km/h (2 Bft)
31.03.2011 09:00 10,3 C 92 % 1009,5 hPa 0,0 l/m 17,4 km/h (3 Bft) SW 0,00 h 0 W/m 9,0 C 4,6 C 17,4 km/h (3 Bft)
31.03.2011 10:00 10,8 C 92 % 1009,5 hPa 0,0 l/m 23,4 km/h (4 Bft) W-SW 0,00 h 0 W/m 9,6 C 3,4 C 23,4 km/h (4 Bft)
31.03.2011 11:00 11,6 C 88 % 1008,6 hPa 0,0 l/m 26,5 km/h (4 Bft) W-SW 0,00 h 0 W/m 9,7 C 3,7 C 26,5 km/h (4 Bft)
31.03.2011 12:00 12,0 C 84 % 1008,8 hPa 0,0 l/m 33,4 km/h (5 Bft) W-SW 0,00 h 0 W/m 9,3 C 2,9 C 33,4 km/h (5 Bft)
31.03.2011 13:00 12,6 C 83 % 1008,0 hPa 0,3 l/m 31,2 km/h (5 Bft) W-SW 0,00 h 0 W/m 9,8 C 4,2 C 31,2 km/h (5 Bft)
31.03.2011 14:00 13,3 C 80 % 1007,3 hPa 0,0 l/m 30,5 km/h (5 Bft) W-SW 0,00 h 0 W/m 9,9 C 5,4 C 30,5 km/h (5 Bft)
31.03.2011 15:00 12,7 C 83 % 1006,5 hPa 0,3 l/m 25,2 km/h (4 Bft) SW 0,00 h 0 W/m 9,9 C 5,5 C 25,2 km/h (4 Bft)
31.03.2011 16:00 11,8 C 89 % 1005,7 hPa 0,9 l/m 24,0 km/h (4 Bft) SW 0,00 h 0 W/m 10,1 C 4,6 C 24,0 km/h (4 Bft)
31.03.2011 17:00 11,7 C 93 % 1005,5 hPa 0,0 l/m 30,2 km/h (5 Bft) W-SW 0,00 h 0 W/m 10,5 C 3,0 C 30,2 km/h (5 Bft)
31.03.2011 18:00 11,9 C 93 % 1005,5 hPa 0,0 l/m 34,5 km/h (5 Bft) W-SW 0,00 h 0 W/m 10,7 C 2,5 C 34,5 km/h (5 Bft)
31.03.2011 19:00 12,0 C 90 % 1005,6 hPa 0,0 l/m 36,7 km/h (5 Bft) W-SW 0,00 h 0 W/m 10,4 C 2,4 C 36,7 km/h (5 Bft)
31.03.2011 20:00 11,9 C 88 % 1006,9 hPa 0,0 l/m 30,8 km/h (5 Bft) W 0,00 h 0 W/m 10,0 C 3,2 C 30,8 km/h (5 Bft)
31.03.2011 21:00 11,3 C 86 % 1007,9 hPa 0,0 l/m 28,2 km/h (5 Bft) W 0,00 h 0 W/m 9,0 C 2,9 C 28,2 km/h (5 Bft)
31.03.2011 22:00 11,2 C 85 % 1008,5 hPa 0,0 l/m 32,3 km/h (5 Bft) W 0,00 h 0 W/m 8,7 C 1,9 C 32,3 km/h (5 Bft)
31.03.2011 23:00 10,8 C 84 % 1009,1 hPa 0,0 l/m 34,5 km/h (5 Bft) W 0,00 h 0 W/m 8,2 C 1,0 C 34,5 km/h (5 Bft)
01.04.2011 00:00 10,3 C 83 % 1009,5 hPa 0,0 l/m 32,8 km/h (5 Bft) W 0,00 h 0 W/m 7,6 C 0,6 C 32,8 km/h (5 Bft)
01.04.2011 01:00 10,1 C 82 % 1010,4 hPa 0,0 l/m 33,1 km/h (5 Bft) W 0,00 h 0 W/m 7,2 C 0,3 C 33,1 km/h (5 Bft)
01.04.2011 02:00 9,7 C 82 % 1010,9 hPa 0,0 l/m 27,0 km/h (5 Bft) W 0,00 h 0 W/m 6,8 C 1,1 C 27,0 km/h (5 Bft)
01.04.2011 03:00 9,2 C 81 % 1011,5 hPa 0,0 l/m 24,4 km/h (4 Bft) W 0,00 h 0 W/m 6,1 C 1,0 C 24,4 km/h (4 Bft)
01.04.2011 04:00 8,8 C 82 % 1012,3 hPa 0,0 l/m 20,9 km/h (4 Bft) W-NW 0,00 h 0 W/m 5,8 C 1,4 C 20,9 km/h (4 Bft)
01.04.2011 05:00 8,6 C 82 % 1012,9 hPa 0,0 l/m 20,4 km/h (4 Bft) W-NW 0,00 h 0 W/m 5,6 C 1,4 C 20,4 km/h (4 Bft)
01.04.2011 06:00 8,4 C 85 % 1013,5 hPa 0,0 l/m 25,9 km/h (4 Bft) W 0,00 h 0 W/m 6,0 C -0,5 C 25,9 km/h (4 Bft)
01.04.2011 07:00 8,4 C 86 % 1014,1 hPa 0,0 l/m 26,2 km/h (4 Bft) W 0,00 h 0 W/m 6,3 C -0,6 C 26,2 km/h (4 Bft)
01.04.2011 08:00 8,9 C 88 % 1014,5 hPa 0,0 l/m 23,8 km/h (4 Bft) W 0,00 h 0 W/m 7,0 C 0,7 C 23,8 km/h (4 Bft)
01.04.2011 09:00 9,5 C 89 % 1015,1 hPa 0,0 l/m 22,0 km/h (4 Bft) W 0,00 h 0 W/m 7,7 C 2,0 C 22,0 km/h (4 Bft)
01.04.2011 10:00 10,8 C 87 % 1015,6 hPa 0,0 l/m 26,9 km/h (4 Bft) W 0,00 h 0 W/m 8,7 C 2,4 C 26,9 km/h (4 Bft)
01.04.2011 11:00 12,2 C 83 % 1016,5 hPa 0,0 l/m 30,6 km/h (5 Bft) W 0,00 h 0 W/m 9,5 C 3,7 C 30,6 km/h (5 Bft)
01.04.2011 12:00 12,8 C 81 % 1016,5 hPa 0,0 l/m 29,1 km/h (5 Bft) W-SW 0,00 h 0 W/m 9,7 C 4,8 C 29,1 km/h (5 Bft)
01.04.2011 13:00 13,0 C 80 % 1016,5 hPa 0,0 l/m 26,2 km/h (4 Bft) W-SW 0,00 h 0 W/m 9,7 C 5,6 C 26,2 km/h (4 Bft)
01.04.2011 14:00 13,0 C 80 % 1016,5 hPa 0,0 l/m 24,3 km/h (4 Bft) W-SW 0,00 h 0 W/m 9,7 C 6,2 C 24,3 km/h (4 Bft)
01.04.2011 15:00 13,2 C 81 % 1016,5 hPa 0,0 l/m 23,4 km/h (4 Bft) W-SW 0,00 h 0 W/m 9,9 C 6,5 C 23,4 km/h (4 Bft)
01.04.2011 16:00 12,4 C 88 % 1016,8 hPa 0,3 l/m 22,6 km/h (4 Bft) W-SW 0,00 h 0 W/m 10,4 C 5,7 C 22,6 km/h (4 Bft)
01.04.2011 17:00 11,8 C 92 % 1017,4 hPa 0,3 l/m 23,0 km/h (4 Bft) W 0,00 h 0 W/m 10,5 C 4,8 C 23,0 km/h (4 Bft)
01.04.2011 18:00 11,5 C 92 % 1017,5 hPa 0,0 l/m 24,3 km/h (4 Bft) W 0,00 h 0 W/m 10,3 C 4,2 C 24,3 km/h (4 Bft)
01.04.2011 19:00 11,3 C 92 % 1017,5 hPa 0,0 l/m 16,5 km/h (3 Bft) W 0,00 h 0 W/m 10,1 C 6,2 C 16,5 km/h (3 Bft)
01.04.2011 20:00 11,4 C 91 % 1017,5 hPa 0,0 l/m 11,7 km/h (2 Bft) W-SW 0,00 h 0 W/m 10,0 C 8,4 C 11,7 km/h (2 Bft)
01.04.2011 21:00 11,3 C 91 % 1017,5 hPa 0,0 l/m 6,0 km/h (2 Bft) SW 0,00 h 0 W/m 9,9 C 11,1 C 6,0 km/h (2 Bft)
01.04.2011 22:00 11,1 C 91 % 1017,5 hPa 0,0 l/m 6,7 km/h (2 Bft) SW 0,00 h 0 W/m 9,6 C 10,3 C 6,7 km/h (2 Bft)
01.04.2011 23:00 11,5 C 91 % 1017,5 hPa 0,0 l/m 10,8 km/h (2 Bft) SW 0,00 h 0 W/m 10,1 C 8,9 C 10,8 km/h (2 Bft)
02.04.2011 00:00 11,2 C 91 % 1017,5 hPa 0,0 l/m 7,5 km/h (2 Bft) S-SW 0,00 h 0 W/m 9,8 C 10,4 C 7,5 km/h (2 Bft)
02.04.2011 01:00 11,0 C 91 % 1017,5 hPa 0,0 l/m 7,1 km/h (2 Bft) S-SW 0,00 h 0 W/m 9,6 C 10,4 C 7,1 km/h (2 Bft)
02.04.2011 02:00 10,8 C 92 % 1017,3 hPa 0,0 l/m 7,1 km/h (2 Bft) S-SW 0,00 h 0 W/m 9,5 C 10,2 C 7,1 km/h (2 Bft)
02.04.2011 03:00 10,7 C 92 % 1016,5 hPa 0,0 l/m 8,8 km/h (2 Bft) S-SW 0,00 h 0 W/m 9,4 C 9,0 C 8,8 km/h (2 Bft)
02.04.2011 04:00 10,6 C 93 % 1016,5 hPa 0,0 l/m 7,8 km/h (2 Bft) S-SW 0,00 h 0 W/m 9,5 C 9,6 C 7,8 km/h (2 Bft)
02.04.2011 05:00 10,3 C 92 % 1016,5 hPa 0,0 l/m 5,8 km/h (2 Bft) S 0,00 h 0 W/m 9,1 C 10,1 C 5,8 km/h (2 Bft)
02.04.2011 06:00 9,8 C 92 % 1016,4 hPa 0,0 l/m 6,9 km/h (2 Bft) S-SO 0,00 h 0 W/m 8,5 C 9,3 C 6,9 km/h (2 Bft)
02.04.2011 07:00 9,6 C 92 % 1015,5 hPa 0,0 l/m 5,8 km/h (2 Bft) S-SO 0,00 h 0 W/m 8,3 C 9,4 C 5,8 km/h (2 Bft)
02.04.2011 08:00 10,1 C 92 % 1015,5 hPa 0,0 l/m 7,3 km/h (2 Bft) S-SW 0,00 h 0 W/m 8,9 C 9,2 C 7,3 km/h (2 Bft)
02.04.2011 09:00 11,9 C 93 % 1015,5 hPa 0,0 l/m 13,6 km/h (3 Bft) S-SW 0,00 h 0 W/m 10,9 C 8,1 C 13,6 km/h (3 Bft)
02.04.2011 10:00 14,4 C 88 % 1015,5 hPa 0,0 l/m 14,6 km/h (3 Bft) SW 0,00 h 0 W/m 12,3 C 10,7 C 14,6 km/h (3 Bft)
02.04.2011 11:00 17,8 C 74 % 1015,5 hPa 0,0 l/m 16,6 km/h (3 Bft) SW 0,00 h 0 W/m 13,0 C 14,3 C 16,6 km/h (3 Bft)
02.04.2011 12:00 20,3 C 63 % 1014,6 hPa 0,0 l/m 16,6 km/h (3 Bft) S 0,00 h 0 W/m 13,1 C 17,4 C 16,6 km/h (3 Bft)
02.04.2011 13:00 21,6 C 56 % 1014,2 hPa 0,0 l/m 18,9 km/h (3 Bft) S 0,00 h 0 W/m 12,3 C 18,5 C 18,9 km/h (3 Bft)
02.04.2011 14:00 22,8 C 48 % 1013,0 hPa 0,0 l/m 18,1 km/h (3 Bft) S 0,00 h 0 W/m 11,2 C 20,1 C 18,1 km/h (3 Bft)
02.04.2011 15:00 23,0 C 46 % 1012,1 hPa 0,0 l/m 20,3 km/h (4 Bft) S 0,00 h 0 W/m 10,6 C 20,1 C 20,3 km/h (4 Bft)
02.04.2011 16:00 22,4 C 44 % 1010,6 hPa 0,0 l/m 22,1 km/h (4 Bft) S 0,00 h 0 W/m 9,7 C 19,1 C 22,1 km/h (4 Bft)
02.04.2011 17:00 22,0 C 45 % 1009,5 hPa 0,0 l/m 23,8 km/h (4 Bft) S 0,00 h 0 W/m 9,6 C 18,3 C 23,8 km/h (4 Bft)
02.04.2011 18:00 21,0 C 49 % 1009,5 hPa 0,0 l/m 18,6 km/h (3 Bft) S 0,00 h 0 W/m 9,9 C 17,8 C 18,6 km/h (3 Bft)
02.04.2011 19:00 19,7 C 53 % 1009,5 hPa 0,0 l/m 11,0 km/h (2 Bft) S 0,00 h 0 W/m 9,9 C 18,0 C 11,0 km/h (2 Bft)
02.04.2011 20:00 18,3 C 57 % 1009,5 hPa 0,0 l/m 8,8 km/h (2 Bft) S 0,00 h 0 W/m 9,5 C 17,3 C 8,8 km/h (2 Bft)
02.04.2011 21:00 17,5 C 57 % 1009,5 hPa 0,0 l/m 10,4 km/h (2 Bft) S 0,00 h 0 W/m 8,9 C 15,8 C 10,4 km/h (2 Bft)
02.04.2011 22:00 16,9 C 58 % 1008,9 hPa 0,0 l/m 10,1 km/h (2 Bft) S 0,00 h 0 W/m 8,6 C 15,2 C 10,1 km/h (2 Bft)
02.04.2011 23:00 16,0 C 60 % 1008,5 hPa 0,0 l/m 9,9 km/h (2 Bft) S 0,00 h 0 W/m 8,2 C 14,3 C 9,9 km/h (2 Bft)
03.04.2011 00:00 15,2 C 63 % 1007,6 hPa 0,0 l/m 9,0 km/h (2 Bft) S 0,00 h 0 W/m 8,2 C 13,9 C 9,0 km/h (2 Bft)
03.04.2011 01:00 14,8 C 66 % 1007,5 hPa 0,0 l/m 10,4 km/h (2 Bft) S 0,00 h 0 W/m 8,5 C 12,9 C 10,4 km/h (2 Bft)
03.04.2011 02:00 15,1 C 68 % 1007,5 hPa 0,0 l/m 16,7 km/h (3 Bft) W-SW 0,00 h 0 W/m 9,2 C 10,8 C 16,7 km/h (3 Bft)
03.04.2011 03:00 13,3 C 70 % 1007,8 hPa 0,0 l/m 15,5 km/h (3 Bft) NW 0,00 h 0 W/m 8,0 C 9,1 C 15,5 km/h (3 Bft)
03.04.2011 04:00 11,7 C 75 % 1008,4 hPa 0,0 l/m 8,5 km/h (2 Bft) W-NW 0,00 h 0 W/m 7,4 C 10,4 C 8,5 km/h (2 Bft)
03.04.2011 05:00 10,5 C 79 % 1008,5 hPa 0,0 l/m 14,8 km/h (3 Bft) W-NW 0,00 h 0 W/m 7,1 C 5,9 C 14,8 km/h (3 Bft)
03.04.2011 06:00 10,3 C 80 % 1008,7 hPa 0,0 l/m 12,1 km/h (2 Bft) W-NW 0,00 h 0 W/m 7,0 C 6,9 C 12,1 km/h (2 Bft)
03.04.2011 07:00 10,5 C 80 % 1009,3 hPa 0,3 l/m 4,1 km/h (1 Bft) SW 0,00 h 0 W/m 7,2 C 10,3 C 4,1 km/h (1 Bft)
03.04.2011 08:00 10,6 C 82 % 1009,5 hPa 0,0 l/m 4,5 km/h (1 Bft) W 0,00 h 0 W/m 7,7 C 10,6 C 4,5 km/h (1 Bft)
03.04.2011 09:00 11,0 C 84 % 1010,3 hPa 0,0 l/m 9,7 km/h (2 Bft) W 0,00 h 0 W/m 8,5 C 9,0 C 9,7 km/h (2 Bft)
03.04.2011 10:00 10,8 C 86 % 1010,5 hPa 0,0 l/m 17,2 km/h (3 Bft) W-NW 0,00 h 0 W/m 8,6 C 5,3 C 17,2 km/h (3 Bft)
03.04.2011 11:00 10,6 C 87 % 1010,5 hPa 0,0 l/m 13,1 km/h (3 Bft) NW 0,00 h 0 W/m 8,5 C 6,9 C 13,1 km/h (3 Bft)
03.04.2011 12:00 10,9 C 83 % 1011,3 hPa 0,0 l/m 11,7 km/h (2 Bft) N-NW 0,00 h 0 W/m 8,1 C 7,8 C 11,7 km/h (2 Bft)
03.04.2011 13:00 11,4 C 77 % 1011,5 hPa 0,0 l/m 10,2 km/h (2 Bft) N 0,00 h 0 W/m 7,4 C 9,0 C 10,2 km/h (2 Bft)
03.04.2011 14:00 11,7 C 74 % 1011,5 hPa 0,0 l/m 10,4 km/h (2 Bft) N 0,00 h 0 W/m 7,2 C 9,2 C 10,4 km/h (2 Bft)
03.04.2011 15:00 10,9 C 75 % 1011,5 hPa 0,0 l/m 11,8 km/h (2 Bft) N-NO 0,00 h 0 W/m 6,6 C 7,7 C 11,8 km/h (2 Bft)
03.04.2011 16:00 10,4 C 77 % 1011,5 hPa 0,0 l/m 9,5 km/h (2 Bft) N 0,00 h 0 W/m 6,6 C 8,4 C 9,5 km/h (2 Bft)
03.04.2011 17:00 9,9 C 78 % 1011,5 hPa 0,0 l/m 9,8 km/h (2 Bft) N 0,00 h 0 W/m 6,3 C 7,6 C 9,8 km/h (2 Bft)
03.04.2011 18:00 9,5 C 79 % 1011,5 hPa 0,0 l/m 7,8 km/h (2 Bft) N 0,00 h 0 W/m 6,0 C 8,5 C 7,8 km/h (2 Bft)
03.04.2011 19:00 9,4 C 78 % 1011,9 hPa 0,0 l/m 3,6 km/h (1 Bft) N 0,00 h 0 W/m 5,8 C 9,2 C 3,6 km/h (1 Bft)
03.04.2011 20:00 9,2 C 78 % 1012,0 hPa 0,0 l/m 1,6 km/h (1 Bft) N 0,00 h 0 W/m 5,7 C 9,2 C 1,6 km/h (1 Bft)
03.04.2011 21:00 8,8 C 80 % 1011,5 hPa 0,0 l/m 0,8 km/h (0 Bft) N 0,00 h 0 W/m 5,5 C 8,8 C 0,8 km/h (0 Bft)
03.04.2011 22:00 8,5 C 80 % 1011,5 hPa 0,0 l/m 0,0 km/h (0 Bft) N 0,00 h 0 W/m 5,3 C 8,5 C 0,0 km/h (0 Bft)
03.04.2011 23:00 8,4 C 81 % 1011,5 hPa 0,0 l/m 1,1 km/h (1 Bft) N 0,00 h 0 W/m 5,4 C 8,4 C 1,1 km/h (1 Bft)
Min-Datum _ 28.03.11 30.03.11 31.03.11 - 29.03.11 - - - 28.03.11 28.03.11 29.03.11
_ Min-Zeit 00:00 17:25 16:10 - 01:00 - - - 00:00 07:35 01:00
Minimum _ 2,6 C 43 % 1005,5 hPa - 0,0 km/h (0 Bft) - - - -1,7 C -6,9 C 0,0 km/h (0 Bft)
Max-Datum _ 02.04.11 31.03.11 01.04.11 31.03.11 31.03.11 - 28.03.11 28.03.11 02.04.11 02.04.11 31.03.11
_ Max-Zeit 14:50 17:56 16:30 00:00 19:00 - 00:00 00:00 12:35 15:36 19:00
Maximum _ 23,3 C 94 % 1017,5 hPa 0,9 l/m 42,5 km/h
W-SW (6 Bft)
- 0,00 h 0 W/m 13,5 C 21,0 C 42,5 km/h
W-SW (6 Bft)
Durchschnitt _ 10,1 C 76 % 1012,2 hPa #5,4 l/m 14,6 km/h (3 Bft) W #0 min. 0 W/m 5,9 C 6,0 C 14,6 km/h (3 Bft)
copyright by Holger Just